SBI2162 URWA-UUDD
Flight info
| Callsign | SBI2162 |
|---|---|
| Flight time | 1h 46m |
| Altitude | 36000 |
| Route | OMIRA5A OMIRA W87 DUBOS N72 WGD G481 OBABI T619 UMRAL P163 GOLRI L736 OLOPI OLOPI3N |
| Aircraft | A320/M-SDFGIJ1RWY/LB1 |
Departure
| Time | 2026-05-04 13:25 |
|---|---|
| Airport | Astrakhan Narimanovo Boris M. Kustodiev International Airport (URWA) |
Arrival
| Time | 2026-05-04 15:12 |
|---|---|
| Airport | Domodedovo International Airport (UUDD) |
| Time | Latitude | Longitude | Altitude | Speed | Heading |
|---|---|---|---|---|---|
| 2026-05-04 13:02 | 46.28663 | 48.00034 | -71 ft | 0 kts | 52° |
| 2026-05-04 13:16 | 46.28663 | 48.00033 | -71 ft | 1 kts | 52° |
| 2026-05-04 13:17 | 46.28650 | 48.00011 | -65 ft | 3 kts | 52° |
| 2026-05-04 13:17 | 46.28639 | 47.99990 | -69 ft | 2 kts | 52° |
| 2026-05-04 13:17 | 46.28627 | 47.99971 | -66 ft | 3 kts | 8° |
| 2026-05-04 13:17 | 46.28619 | 47.99971 | -71 ft | 3 kts | 284° |
| 2026-05-04 13:18 | 46.28615 | 48.00001 | -63 ft | 3 kts | 277° |
| 2026-05-04 13:18 | 46.28613 | 48.00026 | -64 ft | 0 kts | 276° |
| 2026-05-04 13:21 | 46.28617 | 47.99984 | -71 ft | 5 kts | 277° |
| 2026-05-04 13:21 | 46.28620 | 47.99943 | -69 ft | 5 kts | 277° |
| 2026-05-04 13:21 | 46.28627 | 47.99869 | -64 ft | 8 kts | 277° |
| 2026-05-04 13:21 | 46.28628 | 47.99796 | -72 ft | 6 kts | 255° |
| 2026-05-04 13:22 | 46.28590 | 47.99772 | -70 ft | 7 kts | 186° |
| 2026-05-04 13:22 | 46.28563 | 47.99730 | -71 ft | 6 kts | 258° |
| 2026-05-04 13:22 | 46.28565 | 47.99677 | -68 ft | 5 kts | 276° |
| 2026-05-04 13:22 | 46.28562 | 47.99632 | -66 ft | 4 kts | 249° |
| 2026-05-04 13:23 | 46.28519 | 47.99596 | -64 ft | 10 kts | 189° |
| 2026-05-04 13:23 | 46.28463 | 47.99587 | -65 ft | 9 kts | 187° |
| 2026-05-04 13:23 | 46.28415 | 47.99589 | -69 ft | 5 kts | 144° |
| 2026-05-04 13:23 | 46.28409 | 47.99624 | -72 ft | 2 kts | 97° |
| 2026-05-04 13:24 | 46.28409 | 47.99628 | -72 ft | 0 kts | 97° |
| 2026-05-04 13:24 | 46.28397 | 47.99769 | -73 ft | 48 kts | 96° |
| 2026-05-04 13:25 | 46.28215 | 48.01987 | -54 ft | 162 kts | 94° |
| 2026-05-04 13:25 | 46.28079 | 48.03554 | 644 ft | 156 kts | 95° |
| 2026-05-04 13:25 | 46.27921 | 48.05104 | 1325 ft | 158 kts | 102° |
| 2026-05-04 13:25 | 46.27218 | 48.06364 | 1940 ft | 171 kts | 148° |
| 2026-05-04 13:26 | 46.26053 | 48.06706 | 2620 ft | 177 kts | 187° |
| 2026-05-04 13:26 | 46.24953 | 48.05949 | 3240 ft | 179 kts | 228° |
| 2026-05-04 13:26 | 46.24430 | 48.04362 | 3829 ft | 177 kts | 270° |
| 2026-05-04 13:26 | 46.24693 | 48.02681 | 4370 ft | 174 kts | 306° |
| 2026-05-04 13:27 | 46.25402 | 48.01191 | 4766 ft | 189 kts | 309° |
| 2026-05-04 13:27 | 46.26211 | 47.99551 | 5021 ft | 212 kts | 308° |
| 2026-05-04 13:27 | 46.27113 | 47.97708 | 5302 ft | 237 kts | 307° |
| 2026-05-04 13:27 | 46.28109 | 47.95647 | 5707 ft | 262 kts | 307° |
| 2026-05-04 13:28 | 46.29169 | 47.93439 | 6298 ft | 277 kts | 306° |
| 2026-05-04 13:28 | 46.30279 | 47.91112 | 7079 ft | 284 kts | 306° |
| 2026-05-04 13:28 | 46.31405 | 47.88738 | 7951 ft | 288 kts | 305° |
| 2026-05-04 13:28 | 46.32541 | 47.86337 | 8836 ft | 291 kts | 304° |
| 2026-05-04 13:29 | 46.33695 | 47.83889 | 9672 ft | 295 kts | 304° |
| 2026-05-04 13:29 | 46.34864 | 47.81411 | 10320 ft | 306 kts | 303° |
| 2026-05-04 13:29 | 46.36109 | 47.78771 | 10582 ft | 329 kts | 304° |
| 2026-05-04 13:29 | 46.37448 | 47.75933 | 10860 ft | 349 kts | 304° |
| 2026-05-04 13:30 | 46.38836 | 47.72995 | 11449 ft | 357 kts | 304° |
| 2026-05-04 13:30 | 46.40244 | 47.70010 | 12129 ft | 362 kts | 303° |
| 2026-05-04 13:30 | 46.41654 | 47.67018 | 12837 ft | 365 kts | 303° |
| 2026-05-04 13:30 | 46.43094 | 47.63960 | 13563 ft | 368 kts | 303° |
| 2026-05-04 13:31 | 46.44543 | 47.60877 | 14222 ft | 372 kts | 303° |
| 2026-05-04 13:31 | 46.46007 | 47.57756 | 14864 ft | 375 kts | 303° |
| 2026-05-04 13:31 | 46.47478 | 47.54613 | 15484 ft | 378 kts | 302° |
| 2026-05-04 13:31 | 46.48962 | 47.51438 | 16100 ft | 382 kts | 302° |
| 2026-05-04 13:32 | 46.50440 | 47.48277 | 16722 ft | 384 kts | 302° |
| 2026-05-04 13:32 | 46.51948 | 47.45044 | 17348 ft | 387 kts | 302° |
| 2026-05-04 13:32 | 46.53471 | 47.41777 | 17945 ft | 390 kts | 302° |
| 2026-05-04 13:32 | 46.54983 | 47.38539 | 18478 ft | 393 kts | 301° |
| 2026-05-04 13:33 | 46.56544 | 47.35197 | 18986 ft | 396 kts | 302° |
| 2026-05-04 13:33 | 46.58098 | 47.31866 | 19495 ft | 399 kts | 302° |
| 2026-05-04 13:33 | 46.59638 | 47.28553 | 19994 ft | 401 kts | 301° |
| 2026-05-04 13:33 | 46.61207 | 47.25166 | 20502 ft | 404 kts | 301° |
| 2026-05-04 13:34 | 46.62785 | 47.21758 | 20996 ft | 407 kts | 301° |
| 2026-05-04 13:34 | 46.64372 | 47.18321 | 21496 ft | 409 kts | 301° |
| 2026-05-04 13:34 | 46.65946 | 47.14912 | 21979 ft | 411 kts | 301° |
| 2026-05-04 13:34 | 46.67543 | 47.11447 | 22440 ft | 414 kts | 301° |
| 2026-05-04 13:35 | 46.69152 | 47.07948 | 22890 ft | 417 kts | 301° |
| 2026-05-04 13:35 | 46.72237 | 47.00736 | 23731 ft | 422 kts | 298° |
| 2026-05-04 13:35 | 46.73710 | 46.97025 | 24095 ft | 424 kts | 297° |
| 2026-05-04 13:36 | 46.75174 | 46.93262 | 24445 ft | 427 kts | 297° |
| 2026-05-04 13:36 | 46.76644 | 46.89473 | 24795 ft | 430 kts | 297° |
| 2026-05-04 13:36 | 46.78117 | 46.85710 | 25137 ft | 432 kts | 297° |
| 2026-05-04 13:36 | 46.79630 | 46.81890 | 25481 ft | 435 kts | 297° |
| 2026-05-04 13:37 | 46.81159 | 46.78061 | 25810 ft | 438 kts | 297° |
| 2026-05-04 13:37 | 46.82700 | 46.74202 | 26142 ft | 440 kts | 297° |
| 2026-05-04 13:37 | 46.84249 | 46.70322 | 26478 ft | 443 kts | 297° |
| 2026-05-04 13:37 | 46.85276 | 46.67739 | 26689 ft | 445 kts | 297° |
| 2026-05-04 13:38 | 46.87339 | 46.62534 | 27113 ft | 448 kts | 297° |
| 2026-05-04 13:38 | 46.88908 | 46.58571 | 27441 ft | 451 kts | 297° |
| 2026-05-04 13:38 | 46.90486 | 46.54581 | 27763 ft | 453 kts | 297° |
| 2026-05-04 13:38 | 46.92071 | 46.50570 | 28065 ft | 456 kts | 297° |
| 2026-05-04 13:39 | 46.93658 | 46.46542 | 28355 ft | 458 kts | 297° |
| 2026-05-04 13:39 | 46.95252 | 46.42486 | 28638 ft | 460 kts | 297° |
| 2026-05-04 13:39 | 46.96857 | 46.38410 | 28916 ft | 463 kts | 297° |
| 2026-05-04 13:39 | 46.98449 | 46.34371 | 29194 ft | 465 kts | 297° |
| 2026-05-04 13:40 | 47.00066 | 46.30256 | 29468 ft | 467 kts | 297° |
| 2026-05-04 13:40 | 47.01697 | 46.26092 | 29732 ft | 470 kts | 297° |
| 2026-05-04 13:40 | 47.03316 | 46.21945 | 30108 ft | 469 kts | 296° |
| 2026-05-04 13:40 | 47.04934 | 46.17800 | 30478 ft | 468 kts | 296° |
| 2026-05-04 13:41 | 47.06550 | 46.13652 | 30827 ft | 466 kts | 296° |
| 2026-05-04 13:41 | 47.08154 | 46.09521 | 31185 ft | 465 kts | 296° |
| 2026-05-04 13:41 | 47.09749 | 46.05399 | 31531 ft | 464 kts | 296° |
| 2026-05-04 13:42 | 47.12908 | 45.97218 | 32240 ft | 462 kts | 296° |
| 2026-05-04 13:42 | 47.14495 | 45.93109 | 32603 ft | 461 kts | 296° |
| 2026-05-04 13:42 | 47.16080 | 45.89008 | 32985 ft | 459 kts | 296° |
| 2026-05-04 13:42 | 47.17657 | 45.84921 | 33386 ft | 457 kts | 296° |
| 2026-05-04 13:43 | 47.19218 | 45.80862 | 33749 ft | 456 kts | 296° |
| 2026-05-04 13:43 | 47.20779 | 45.76804 | 34086 ft | 455 kts | 297° |
| 2026-05-04 13:43 | 47.22541 | 45.72983 | 34366 ft | 457 kts | 306° |
| 2026-05-04 13:43 | 47.24721 | 45.69564 | 34655 ft | 460 kts | 316° |
| 2026-05-04 13:44 | 47.27258 | 45.66676 | 34912 ft | 463 kts | 325° |
| 2026-05-04 13:44 | 47.30037 | 45.64264 | 34979 ft | 464 kts | 328° |
| 2026-05-04 13:44 | 47.35649 | 45.59523 | 34988 ft | 464 kts | 328° |
| 2026-05-04 13:45 | 47.41219 | 45.54782 | 34989 ft | 464 kts | 328° |
| 2026-05-04 13:45 | 47.46813 | 45.49992 | 34988 ft | 464 kts | 328° |
| 2026-05-04 13:46 | 47.52401 | 45.45204 | 34991 ft | 463 kts | 327° |
| 2026-05-04 13:46 | 47.57974 | 45.40428 | 34990 ft | 462 kts | 327° |
| 2026-05-04 13:47 | 47.63536 | 45.35663 | 34992 ft | 461 kts | 327° |
| 2026-05-04 13:47 | 47.69053 | 45.30900 | 34995 ft | 461 kts | 327° |
| 2026-05-04 13:48 | 47.74589 | 45.26099 | 35008 ft | 460 kts | 327° |
| 2026-05-04 13:48 | 47.80109 | 45.21306 | 35013 ft | 459 kts | 327° |
| 2026-05-04 13:49 | 47.85628 | 45.16507 | 35014 ft | 458 kts | 327° |
| 2026-05-04 13:49 | 47.91104 | 45.11739 | 35021 ft | 458 kts | 327° |
| 2026-05-04 13:50 | 47.96604 | 45.06947 | 35017 ft | 457 kts | 327° |
| 2026-05-04 13:50 | 48.01162 | 45.02958 | 35015 ft | 456 kts | 326° |
| 2026-05-04 13:51 | 48.07532 | 44.97370 | 35008 ft | 455 kts | 327° |
| 2026-05-04 13:51 | 48.13003 | 44.92560 | 35019 ft | 455 kts | 326° |
| 2026-05-04 13:52 | 48.20284 | 44.86133 | 35021 ft | 454 kts | 326° |
| 2026-05-04 13:53 | 48.25693 | 44.81337 | 35025 ft | 453 kts | 326° |
| 2026-05-04 13:53 | 48.31119 | 44.76520 | 35024 ft | 452 kts | 326° |
| 2026-05-04 13:54 | 48.39207 | 44.69328 | 35028 ft | 451 kts | 326° |
| 2026-05-04 13:55 | 48.47308 | 44.62091 | 35025 ft | 450 kts | 326° |
| 2026-05-04 13:55 | 48.55381 | 44.54860 | 35043 ft | 450 kts | 326° |
| 2026-05-04 13:56 | 48.60732 | 44.50052 | 35042 ft | 449 kts | 326° |
| 2026-05-04 13:57 | 48.68796 | 44.42761 | 35041 ft | 449 kts | 325° |
| 2026-05-04 13:58 | 48.79649 | 44.33452 | 35045 ft | 453 kts | 335° |
| 2026-05-04 13:58 | 48.88521 | 44.28461 | 35031 ft | 453 kts | 335° |
| 2026-05-04 13:59 | 48.94387 | 44.25141 | 35031 ft | 453 kts | 335° |
| 2026-05-04 14:00 | 49.03232 | 44.20123 | 35028 ft | 453 kts | 336° |
| 2026-05-04 14:00 | 49.12089 | 44.15061 | 35026 ft | 452 kts | 335° |
| 2026-05-04 14:01 | 49.17966 | 44.11698 | 35022 ft | 452 kts | 336° |
| 2026-05-04 14:02 | 49.26808 | 44.06638 | 35036 ft | 452 kts | 336° |
| 2026-05-04 14:02 | 49.32699 | 44.03244 | 35033 ft | 451 kts | 336° |
| 2026-05-04 14:03 | 49.38549 | 43.99863 | 35030 ft | 450 kts | 336° |
| 2026-05-04 14:03 | 49.44420 | 43.96461 | 35024 ft | 450 kts | 336° |
| 2026-05-04 14:04 | 49.53108 | 43.91053 | 35018 ft | 447 kts | 328° |
| 2026-05-04 14:04 | 49.58548 | 43.86496 | 35014 ft | 447 kts | 328° |
| 2026-05-04 14:05 | 49.66714 | 43.79640 | 35018 ft | 446 kts | 328° |
| 2026-05-04 14:06 | 49.72171 | 43.75055 | 35024 ft | 446 kts | 329° |
| 2026-05-04 14:06 | 49.77621 | 43.70462 | 35021 ft | 445 kts | 329° |
| 2026-05-04 14:07 | 49.83061 | 43.65854 | 35019 ft | 445 kts | 329° |
| 2026-05-04 14:07 | 49.88464 | 43.61273 | 35015 ft | 445 kts | 329° |
| 2026-05-04 14:08 | 49.93901 | 43.56655 | 35020 ft | 445 kts | 329° |
| 2026-05-04 14:08 | 49.99333 | 43.52024 | 35012 ft | 445 kts | 329° |
| 2026-05-04 14:09 | 50.07444 | 43.45075 | 35004 ft | 445 kts | 329° |
| 2026-05-04 14:10 | 50.15584 | 43.38071 | 35007 ft | 445 kts | 329° |
| 2026-05-04 14:10 | 50.21015 | 43.33414 | 35005 ft | 445 kts | 330° |
| 2026-05-04 14:11 | 50.26406 | 43.28762 | 35004 ft | 445 kts | 329° |
| 2026-05-04 14:11 | 50.34546 | 43.21707 | 34998 ft | 445 kts | 329° |
| 2026-05-04 14:12 | 50.39960 | 43.16996 | 35001 ft | 445 kts | 330° |
| 2026-05-04 14:12 | 50.45332 | 43.12302 | 35122 ft | 446 kts | 330° |
| 2026-05-04 14:13 | 50.48050 | 43.09938 | 35390 ft | 446 kts | 330° |
| 2026-05-04 14:13 | 50.50765 | 43.07576 | 35648 ft | 446 kts | 329° |
| 2026-05-04 14:13 | 50.53477 | 43.05206 | 35889 ft | 446 kts | 329° |
| 2026-05-04 14:13 | 50.56199 | 43.02822 | 35997 ft | 446 kts | 329° |
| 2026-05-04 14:14 | 50.58911 | 43.00440 | 36007 ft | 446 kts | 329° |
| 2026-05-04 14:14 | 50.67018 | 42.93299 | 36002 ft | 446 kts | 329° |
| 2026-05-04 14:15 | 50.78523 | 42.86051 | 36002 ft | 447 kts | 339° |
| 2026-05-04 14:16 | 50.87329 | 42.81142 | 36009 ft | 447 kts | 339° |
| 2026-05-04 14:17 | 50.96136 | 42.76203 | 36007 ft | 447 kts | 339° |
| 2026-05-04 14:18 | 51.04937 | 42.71256 | 36009 ft | 447 kts | 339° |
| 2026-05-04 14:19 | 51.16661 | 42.64636 | 36014 ft | 447 kts | 339° |
| 2026-05-04 14:19 | 51.22516 | 42.61314 | 36010 ft | 446 kts | 339° |
| 2026-05-04 14:20 | 51.28371 | 42.57977 | 36009 ft | 446 kts | 339° |
| 2026-05-04 14:20 | 51.34157 | 42.54668 | 36007 ft | 446 kts | 339° |
| 2026-05-04 14:21 | 51.42926 | 42.49648 | 36006 ft | 445 kts | 339° |
| 2026-05-04 14:21 | 51.48763 | 42.46279 | 36003 ft | 445 kts | 339° |
| 2026-05-04 14:22 | 51.54563 | 42.42942 | 36006 ft | 445 kts | 339° |
| 2026-05-04 14:22 | 51.60397 | 42.39589 | 36003 ft | 445 kts | 339° |
| 2026-05-04 14:23 | 51.69141 | 42.34513 | 35997 ft | 444 kts | 339° |
| 2026-05-04 14:24 | 51.74951 | 42.31130 | 35996 ft | 444 kts | 339° |
| 2026-05-04 14:24 | 51.80759 | 42.27735 | 35988 ft | 443 kts | 339° |
| 2026-05-04 14:25 | 51.86560 | 42.24350 | 35976 ft | 443 kts | 339° |
| 2026-05-04 14:25 | 51.95235 | 42.19274 | 35988 ft | 443 kts | 339° |
| 2026-05-04 14:26 | 52.01034 | 42.15861 | 35981 ft | 442 kts | 339° |
| 2026-05-04 14:26 | 52.06780 | 42.12463 | 35981 ft | 442 kts | 339° |
| 2026-05-04 14:27 | 52.12576 | 42.09064 | 35974 ft | 442 kts | 340° |
| 2026-05-04 14:27 | 52.18411 | 42.05843 | 35978 ft | 442 kts | 341° |
| 2026-05-04 14:28 | 52.24220 | 42.02690 | 35973 ft | 442 kts | 341° |
| 2026-05-04 14:28 | 52.29912 | 41.98964 | 35977 ft | 441 kts | 335° |
| 2026-05-04 14:29 | 52.41002 | 41.90455 | 35980 ft | 440 kts | 334° |
| 2026-05-04 14:30 | 52.46559 | 41.86180 | 35976 ft | 439 kts | 334° |
| 2026-05-04 14:31 | 52.54875 | 41.79839 | 35974 ft | 438 kts | 334° |
| 2026-05-04 14:32 | 52.65878 | 41.71354 | 35968 ft | 438 kts | 334° |
| 2026-05-04 14:32 | 52.71400 | 41.67074 | 35962 ft | 437 kts | 334° |
| 2026-05-04 14:33 | 52.76874 | 41.62823 | 35967 ft | 437 kts | 334° |
| 2026-05-04 14:33 | 52.82397 | 41.58531 | 35958 ft | 436 kts | 334° |
| 2026-05-04 14:34 | 52.87850 | 41.54265 | 35969 ft | 436 kts | 334° |
| 2026-05-04 14:34 | 52.93335 | 41.49968 | 35958 ft | 435 kts | 334° |
| 2026-05-04 14:35 | 52.98818 | 41.45663 | 35958 ft | 435 kts | 334° |
| 2026-05-04 14:35 | 53.04288 | 41.41369 | 35951 ft | 434 kts | 334° |
| 2026-05-04 14:36 | 53.09750 | 41.37069 | 35952 ft | 434 kts | 334° |
| 2026-05-04 14:36 | 53.15212 | 41.32742 | 35948 ft | 434 kts | 334° |
| 2026-05-04 14:37 | 53.20638 | 41.28421 | 35937 ft | 434 kts | 334° |
| 2026-05-04 14:37 | 53.25320 | 41.25427 | 35937 ft | 434 kts | 342° |
| 2026-05-04 14:38 | 53.31110 | 41.22493 | 35937 ft | 434 kts | 342° |
| 2026-05-04 14:38 | 53.36899 | 41.19560 | 35938 ft | 434 kts | 342° |
| 2026-05-04 14:39 | 53.42686 | 41.16607 | 35937 ft | 434 kts | 342° |
| 2026-05-04 14:39 | 53.48429 | 41.13663 | 35934 ft | 434 kts | 342° |
| 2026-05-04 14:40 | 53.57095 | 41.09196 | 35923 ft | 434 kts | 342° |
| 2026-05-04 14:40 | 53.62878 | 41.06202 | 35922 ft | 434 kts | 342° |
| 2026-05-04 14:41 | 53.68230 | 41.01749 | 35917 ft | 432 kts | 322° |
| 2026-05-04 14:41 | 53.72300 | 40.94336 | 35913 ft | 433 kts | 302° |
| 2026-05-04 14:42 | 53.74893 | 40.85132 | 35904 ft | 434 kts | 295° |
| 2026-05-04 14:42 | 53.77297 | 40.75811 | 35900 ft | 435 kts | 295° |
| 2026-05-04 14:43 | 53.79704 | 40.66394 | 35862 ft | 435 kts | 294° |
| 2026-05-04 14:43 | 53.80898 | 40.61720 | 35606 ft | 428 kts | 295° |
| 2026-05-04 14:43 | 53.82075 | 40.57107 | 35355 ft | 425 kts | 295° |
| 2026-05-04 14:44 | 53.83244 | 40.52513 | 35108 ft | 424 kts | 295° |
| 2026-05-04 14:44 | 53.84399 | 40.47979 | 34863 ft | 424 kts | 295° |
| 2026-05-04 14:44 | 53.85566 | 40.43390 | 34620 ft | 424 kts | 295° |
| 2026-05-04 14:44 | 53.86728 | 40.38794 | 34376 ft | 425 kts | 295° |
| 2026-05-04 14:45 | 53.87896 | 40.34184 | 34127 ft | 425 kts | 295° |
| 2026-05-04 14:45 | 53.89067 | 40.29561 | 33890 ft | 426 kts | 296° |
| 2026-05-04 14:45 | 53.90244 | 40.24912 | 33629 ft | 427 kts | 296° |
| 2026-05-04 14:45 | 53.91401 | 40.20334 | 33338 ft | 428 kts | 295° |
| 2026-05-04 14:46 | 53.92573 | 40.15686 | 33066 ft | 429 kts | 295° |
| 2026-05-04 14:46 | 53.93744 | 40.11014 | 32790 ft | 429 kts | 295° |
| 2026-05-04 14:46 | 53.94913 | 40.06341 | 32410 ft | 428 kts | 295° |
| 2026-05-04 14:46 | 53.96074 | 40.01687 | 31786 ft | 426 kts | 295° |
| 2026-05-04 14:47 | 53.97226 | 39.97059 | 31179 ft | 423 kts | 295° |
| 2026-05-04 14:47 | 53.98356 | 39.92524 | 30588 ft | 421 kts | 295° |
| 2026-05-04 14:47 | 53.99495 | 39.87950 | 29986 ft | 420 kts | 295° |
| 2026-05-04 14:47 | 54.00630 | 39.83383 | 29331 ft | 417 kts | 295° |
| 2026-05-04 14:48 | 54.01751 | 39.78859 | 28757 ft | 413 kts | 294° |
| 2026-05-04 14:48 | 54.02862 | 39.74356 | 28174 ft | 409 kts | 294° |
| 2026-05-04 14:48 | 54.03960 | 39.69900 | 27605 ft | 406 kts | 294° |
| 2026-05-04 14:48 | 54.05034 | 39.65541 | 27041 ft | 403 kts | 294° |
| 2026-05-04 14:49 | 54.06109 | 39.61161 | 26482 ft | 399 kts | 294° |
| 2026-05-04 14:49 | 54.07177 | 39.56794 | 25929 ft | 396 kts | 294° |
| 2026-05-04 14:49 | 54.08237 | 39.52465 | 25372 ft | 394 kts | 294° |
| 2026-05-04 14:49 | 54.09290 | 39.48166 | 24859 ft | 391 kts | 294° |
| 2026-05-04 14:50 | 54.10319 | 39.43952 | 24342 ft | 388 kts | 294° |
| 2026-05-04 14:50 | 54.11351 | 39.39708 | 23851 ft | 385 kts | 293° |
| 2026-05-04 14:50 | 54.12373 | 39.35499 | 23339 ft | 382 kts | 294° |
| 2026-05-04 14:50 | 54.13385 | 39.31338 | 22840 ft | 377 kts | 294° |
| 2026-05-04 14:51 | 54.14381 | 39.27224 | 22381 ft | 373 kts | 294° |
| 2026-05-04 14:51 | 54.15365 | 39.23148 | 21920 ft | 369 kts | 294° |
| 2026-05-04 14:51 | 54.16336 | 39.19121 | 21465 ft | 365 kts | 293° |
| 2026-05-04 14:51 | 54.17284 | 39.15168 | 21011 ft | 362 kts | 293° |
| 2026-05-04 14:52 | 54.18233 | 39.11200 | 20552 ft | 360 kts | 293° |
| 2026-05-04 14:52 | 54.19173 | 39.07258 | 20080 ft | 357 kts | 293° |
| 2026-05-04 14:52 | 54.20108 | 39.03328 | 19615 ft | 356 kts | 293° |
| 2026-05-04 14:52 | 54.21042 | 38.99403 | 19140 ft | 355 kts | 293° |
| 2026-05-04 14:53 | 54.21986 | 38.95495 | 18655 ft | 354 kts | 295° |
| 2026-05-04 14:53 | 54.23254 | 38.91925 | 18271 ft | 350 kts | 308° |
| 2026-05-04 14:53 | 54.24929 | 38.88980 | 17746 ft | 349 kts | 321° |
| 2026-05-04 14:53 | 54.26949 | 38.86737 | 17250 ft | 347 kts | 333° |
| 2026-05-04 14:54 | 54.29102 | 38.84941 | 16861 ft | 342 kts | 333° |
| 2026-05-04 14:54 | 54.31241 | 38.83129 | 16410 ft | 340 kts | 333° |
| 2026-05-04 14:54 | 54.33347 | 38.81329 | 16038 ft | 336 kts | 333° |
| 2026-05-04 14:54 | 54.35442 | 38.79618 | 15786 ft | 332 kts | 334° |
| 2026-05-04 14:55 | 54.37543 | 38.77974 | 15535 ft | 330 kts | 335° |
| 2026-05-04 14:55 | 54.39634 | 38.76367 | 15289 ft | 328 kts | 335° |
| 2026-05-04 14:55 | 54.41710 | 38.74771 | 15044 ft | 327 kts | 335° |
| 2026-05-04 14:55 | 54.43780 | 38.73170 | 14798 ft | 325 kts | 335° |
| 2026-05-04 14:56 | 54.45817 | 38.71587 | 14561 ft | 323 kts | 335° |
| 2026-05-04 14:56 | 54.47861 | 38.69989 | 14311 ft | 322 kts | 334° |
| 2026-05-04 14:56 | 54.49898 | 38.68387 | 14068 ft | 320 kts | 334° |
| 2026-05-04 14:56 | 54.51921 | 38.66794 | 13826 ft | 319 kts | 334° |
| 2026-05-04 14:57 | 54.53933 | 38.65204 | 13591 ft | 317 kts | 334° |
| 2026-05-04 14:57 | 54.55938 | 38.63615 | 13322 ft | 316 kts | 334° |
| 2026-05-04 14:57 | 54.57935 | 38.62033 | 13057 ft | 315 kts | 334° |
| 2026-05-04 14:57 | 54.59892 | 38.60483 | 12802 ft | 313 kts | 334° |
| 2026-05-04 14:58 | 54.61870 | 38.58916 | 12537 ft | 312 kts | 334° |
| 2026-05-04 14:58 | 54.63840 | 38.57357 | 12290 ft | 311 kts | 334° |
| 2026-05-04 14:58 | 54.65804 | 38.55800 | 12023 ft | 310 kts | 334° |
| 2026-05-04 14:58 | 54.67756 | 38.54250 | 11770 ft | 308 kts | 334° |
| 2026-05-04 14:59 | 54.69701 | 38.52699 | 11518 ft | 307 kts | 334° |
| 2026-05-04 14:59 | 54.71640 | 38.51152 | 11268 ft | 306 kts | 334° |
| 2026-05-04 14:59 | 54.75501 | 38.48075 | 10786 ft | 303 kts | 333° |
| 2026-05-04 15:00 | 54.77409 | 38.46555 | 10537 ft | 301 kts | 333° |
| 2026-05-04 15:00 | 54.79308 | 38.45042 | 10301 ft | 300 kts | 333° |
| 2026-05-04 15:00 | 54.81199 | 38.43533 | 10069 ft | 298 kts | 333° |
| 2026-05-04 15:01 | 54.84833 | 38.40618 | 9759 ft | 278 kts | 333° |
| 2026-05-04 15:01 | 54.86576 | 38.39217 | 9631 ft | 275 kts | 333° |
| 2026-05-04 15:01 | 54.88314 | 38.37819 | 9498 ft | 274 kts | 333° |
| 2026-05-04 15:01 | 54.90043 | 38.36424 | 9367 ft | 273 kts | 333° |
| 2026-05-04 15:02 | 54.91771 | 38.35031 | 9235 ft | 273 kts | 333° |
| 2026-05-04 15:02 | 54.93476 | 38.33657 | 9104 ft | 273 kts | 333° |
| 2026-05-04 15:02 | 54.95199 | 38.32266 | 8983 ft | 273 kts | 333° |
| 2026-05-04 15:02 | 54.96923 | 38.30869 | 8849 ft | 272 kts | 333° |
| 2026-05-04 15:03 | 54.98641 | 38.29481 | 8633 ft | 270 kts | 333° |
| 2026-05-04 15:03 | 55.00347 | 38.28107 | 8228 ft | 269 kts | 333° |
| 2026-05-04 15:03 | 55.02049 | 38.26736 | 7827 ft | 268 kts | 333° |
| 2026-05-04 15:03 | 55.03720 | 38.25384 | 7439 ft | 267 kts | 333° |
| 2026-05-04 15:04 | 55.05398 | 38.24024 | 7073 ft | 265 kts | 333° |
| 2026-05-04 15:04 | 55.07066 | 38.22666 | 6682 ft | 263 kts | 332° |
| 2026-05-04 15:04 | 55.08723 | 38.21313 | 6318 ft | 262 kts | 332° |
| 2026-05-04 15:04 | 55.10378 | 38.19961 | 5945 ft | 262 kts | 332° |
| 2026-05-04 15:05 | 55.12025 | 38.18616 | 5596 ft | 261 kts | 332° |
| 2026-05-04 15:05 | 55.13667 | 38.17277 | 5253 ft | 260 kts | 332° |
| 2026-05-04 15:05 | 55.15278 | 38.15969 | 5107 ft | 250 kts | 332° |
| 2026-05-04 15:05 | 55.16803 | 38.14737 | 4981 ft | 238 kts | 332° |
| 2026-05-04 15:06 | 55.18279 | 38.13541 | 4851 ft | 228 kts | 332° |
| 2026-05-04 15:06 | 55.19690 | 38.12390 | 4736 ft | 218 kts | 332° |
| 2026-05-04 15:06 | 55.21053 | 38.11274 | 4493 ft | 214 kts | 332° |
| 2026-05-04 15:07 | 55.23723 | 38.09077 | 3907 ft | 213 kts | 332° |
| 2026-05-04 15:07 | 55.24987 | 38.07747 | 3595 ft | 211 kts | 322° |
| 2026-05-04 15:07 | 55.26186 | 38.06286 | 3412 ft | 206 kts | 322° |
| 2026-05-04 15:07 | 55.27338 | 38.04904 | 3328 ft | 194 kts | 323° |
| 2026-05-04 15:08 | 55.28417 | 38.03615 | 3124 ft | 185 kts | 323° |
| 2026-05-04 15:08 | 55.29469 | 38.02360 | 2897 ft | 179 kts | 322° |
| 2026-05-04 15:08 | 55.30486 | 38.01145 | 2665 ft | 174 kts | 323° |
| 2026-05-04 15:08 | 55.31473 | 37.99966 | 2444 ft | 169 kts | 323° |
| 2026-05-04 15:09 | 55.32405 | 37.98853 | 2236 ft | 159 kts | 323° |
| 2026-05-04 15:09 | 55.33273 | 37.97816 | 2039 ft | 145 kts | 322° |
| 2026-05-04 15:09 | 55.34090 | 37.96837 | 1845 ft | 140 kts | 322° |
| 2026-05-04 15:10 | 55.35674 | 37.94940 | 1482 ft | 136 kts | 321° |
| 2026-05-04 15:10 | 55.36454 | 37.94002 | 1299 ft | 136 kts | 322° |
| 2026-05-04 15:10 | 55.38023 | 37.92117 | 926 ft | 136 kts | 323° |
| 2026-05-04 15:11 | 55.38813 | 37.91169 | 752 ft | 138 kts | 323° |
| 2026-05-04 15:11 | 55.39594 | 37.90235 | 586 ft | 138 kts | 324° |
| 2026-05-04 15:11 | 55.40334 | 37.89349 | 570 ft | 109 kts | 326° |
| 2026-05-04 15:11 | 55.40817 | 37.88768 | 576 ft | 59 kts | 326° |
| 2026-05-04 15:12 | 55.41046 | 37.88494 | 580 ft | 31 kts | 328° |
| 2026-05-04 15:12 | 55.41225 | 37.88372 | 580 ft | 24 kts | 348° |
| 2026-05-04 15:12 | 55.41326 | 37.88351 | 584 ft | 7 kts | 355° |
| 2026-05-04 15:12 | 55.41372 | 37.88360 | 583 ft | 8 kts | 26° |
| 2026-05-04 15:13 | 55.41373 | 37.88460 | 582 ft | 10 kts | 132° |
| 2026-05-04 15:13 | 55.41318 | 37.88528 | 579 ft | 9 kts | 146° |
| 2026-05-04 15:13 | 55.41267 | 37.88590 | 580 ft | 9 kts | 146° |
| 2026-05-04 15:13 | 55.41234 | 37.88630 | 578 ft | 9 kts | 145° |
| 2026-05-04 15:14 | 55.41203 | 37.88668 | 578 ft | 8 kts | 146° |
| 2026-05-04 15:14 | 55.41143 | 37.88739 | 577 ft | 12 kts | 146° |
| 2026-05-04 15:14 | 55.41079 | 37.88817 | 577 ft | 11 kts | 146° |
| 2026-05-04 15:14 | 55.41018 | 37.88890 | 576 ft | 10 kts | 146° |
| 2026-05-04 15:15 | 55.40961 | 37.88958 | 576 ft | 9 kts | 146° |
| 2026-05-04 15:15 | 55.40911 | 37.89018 | 576 ft | 9 kts | 146° |
| 2026-05-04 15:15 | 55.40852 | 37.89088 | 573 ft | 11 kts | 146° |
| 2026-05-04 15:16 | 55.40779 | 37.89300 | 571 ft | 11 kts | 85° |
| 2026-05-04 15:16 | 55.40804 | 37.89420 | 571 ft | 10 kts | 57° |
| 2026-05-04 15:16 | 55.40885 | 37.89590 | 570 ft | 8 kts | 54° |
| 2026-05-04 15:17 | 55.40917 | 37.89673 | 570 ft | 8 kts | 56° |
| 2026-05-04 15:17 | 55.40975 | 37.89822 | 573 ft | 7 kts | 56° |
| 2026-05-04 15:17 | 55.41002 | 37.89884 | 571 ft | 6 kts | 46° |
| 2026-05-04 15:18 | 55.41038 | 37.89918 | 569 ft | 5 kts | 18° |
| 2026-05-04 15:18 | 55.41071 | 37.89936 | 573 ft | 4 kts | 17° |
| 2026-05-04 15:18 | 55.41097 | 37.89951 | 569 ft | 4 kts | 17° |
| 2026-05-04 15:19 | 55.41147 | 37.89979 | 573 ft | 1 kts | 18° |
| 2026-05-04 15:19 | 55.41152 | 37.89981 | 574 ft | 0 kts | 18° |